Pagrindinis puslapis
METAR-TAF:

METAR-TAF

Oro uostai :

Luangnamta, Laosas

platuma: 20-57-38N, ilguma: 101-24-09E, Aukštis: 600 m

Dabartinis oras

Ataskaita buvo paskelbta 3 valandos ir 43 minutes, ne 12:00 UTC
Vėjas 2 kt iš Pietryčių
Temperatūra 22°C
Drėgmė 83%
Slėgis 1015 hPa
Matomumas: 7000 m
Mažai debesys ne aukštis 2000 ft

METAR: VLLN 191200Z 14002KT 7000 FEW020 22/19 Q1015 NOSIG

Laikas: 21:13 (15:43 UTC)

Prognozė

Ataskaita buvo paskelbta 4 valandos ir 43 minutes, ne 11:00 UTC
Prognozė galioja nuo 19 metu 12 UTC su 20 metu 12 UTC
Vėjas 4 kt iš Šiaurės Vakarų
Matomumas: 5000 m
Mažai debesys ne aukštis 2000 ft
Išsisklaidę debesys ne aukštis 10000 ft
rūkana

TAF: VLLN 191100Z 1912/2012 32004KT 5000 BR FEW020 SCT100

Orai ataskaitas ir orų prognozės (METAR, TAF).

turimą stotys yra geltonos ir raudonos taškus žemėlapyje.

Perkelti pele per norėdami pamatyti stoties vardą.

Tada spustelėkite, norėdami matyti oro stebėjimo ir prognozės.

Norėdami pakeisti žemėlapį: spustelėkite ant žalios mygtukų su juodo kryžiaus žemyn,; žalią mygtuką su brūkšneliu, jei norite nutolinti; arba žalių rodyklių gretimoms žemėlapius.


METAR-TAF: